Blue Galaxy — SWDA — position and weather

sailwx.info

Track history (hours):
 
Tides and Currents Weather Stations Pressure Air Temp Water Temp Dewpoint Dewpoint Depression Visibility Wind Speed Wind Dir Waves Ship Positions

Blue Galaxy

Last reported at 2017-Jan-17 20:33 UTC. Time now 2017-Jan-18 20:22 UTC.
Position N 37°36' E 023°43'.

Length 192 m; draft 6.7 m.

Type: Passenger vessel. MMSI: 239672000.

Date/timePositionNaut miles runAvg speedWind from/ knotsBaromVisibWave heightAir tempDewpointWater temp
2017-Jan-17 20:33N 37°36' E 023°43'1919.0
2017-Jan-17 19:33N 37°55' E 023°37'2 2.1
2017-Jan-17 18:33N 37°56' E 023°38'0 0.0
2017-Jan-17 17:33N 37°56' E 023°38'0 0.0
2017-Jan-17 16:33N 37°56' E 023°38'0 0.0
2017-Jan-17 15:33N 37°56' E 023°38'0 0.0
2017-Jan-17 14:33N 37°56' E 023°38'0 0.0
2017-Jan-17 13:33N 37°56' E 023°38'0 0.0
2017-Jan-17 12:30N 37°56' E 023°38'0 0.0
2017-Jan-17 11:32N 37°56' E 023°38'0 0.0
2017-Jan-17 10:32N 37°56' E 023°38'0 0.0
2017-Jan-17 09:32N 37°56' E 023°38'0 0.0
2017-Jan-17 08:32N 37°56' E 023°38'0 0.0
2017-Jan-17 07:32N 37°56' E 023°38'0 0.0
2017-Jan-17 06:33N 37°56' E 023°38'0 0.0
2017-Jan-17 05:33N 37°56' E 023°38'0 0.0
2017-Jan-17 04:33N 37°56' E 023°38'0 0.1
2017-Jan-17 03:33N 37°56' E 023°37'1717.1
2017-Jan-17 02:33N 37°41' E 023°46'4 0.1
2017-Jan-15 20:33N 37°37' E 023°43'1918.9
2017-Jan-15 19:33N 37°55' E 023°36'2 1.9
2017-Jan-15 18:33N 37°56' E 023°38'0 0.0
2017-Jan-15 17:33N 37°56' E 023°38'0 0.0
2017-Jan-15 16:33N 37°56' E 023°38'0 0.0
2017-Jan-15 15:33N 37°56' E 023°38'0 0.0
2017-Jan-15 14:30N 37°56' E 023°38'0 0.0
2017-Jan-15 13:30N 37°56' E 023°38'0 0.0
2017-Jan-15 12:30N 37°56' E 023°38'0 0.0
2017-Jan-15 11:33N 37°56' E 023°38'0 0.0
2017-Jan-15 10:33N 37°56' E 023°38'0 0.0
2017-Jan-15 09:33N 37°56' E 023°38'0 0.0
2017-Jan-15 08:30N 37°56' E 023°38'0 0.0
2017-Jan-15 07:33N 37°56' E 023°38'0 0.0
2017-Jan-15 06:30N 37°56' E 023°38'0 0.0
2017-Jan-15 05:33N 37°56' E 023°38'0 0.0
2017-Jan-15 04:33N 37°56' E 023°38'1 0.9
2017-Jan-15 03:34N 37°56' E 023°37'1918.8
2017-Jan-15 02:33N 37°39' E 023°48'5 0.2
2017-Jan-13 20:33N 37°37' E 023°43'1918.7
2017-Jan-13 19:33N 37°55' E 023°37'2 1.9
2017-Jan-13 18:31N 37°56' E 023°38'0 0.0
2017-Jan-13 17:31N 37°56' E 023°38'0 0.0
2017-Jan-13 16:31N 37°56' E 023°38'0 0.0
2017-Jan-13 15:31N 37°56' E 023°38'0 0.0
2017-Jan-13 14:31N 37°56' E 023°38'0 0.0
2017-Jan-13 13:31N 37°56' E 023°38'0 0.0
2017-Jan-13 12:32N 37°56' E 023°38'0 0.0
2017-Jan-13 11:31N 37°56' E 023°38'0 0.0
2017-Jan-13 10:31N 37°56' E 023°38'0 0.0
2017-Jan-13 09:31N 37°56' E 023°38'0 0.0
2017-Jan-13 08:31N 37°56' E 023°38'0 0.0
2017-Jan-13 07:25N 37°56' E 023°38'0 0.0
2017-Jan-13 06:31N 37°56' E 023°38'0 0.0
2017-Jan-13 05:31N 37°56' E 023°38'0 0.0
2017-Jan-13 04:31N 37°56' E 023°38'0 0.1
2017-Jan-13 03:34N 37°56' E 023°38'1716.6
2017-Jan-13 02:34N 37°41' E 023°45'4 0.1
2017-Jan-11 20:33N 37°37' E 023°43'1918.6
2017-Jan-11 19:33N 37°55' E 023°37'2 2.0
2017-Jan-11 18:33N 37°56' E 023°38'0 0.0
2017-Jan-11 17:33N 37°56' E 023°38'0 0.0
2017-Jan-11 16:33N 37°56' E 023°38'0 0.0
2017-Jan-11 15:32N 37°56' E 023°38'0 0.0
2017-Jan-11 14:33N 37°56' E 023°38'0 0.0
2017-Jan-11 13:31N 37°56' E 023°38'0 0.0
2017-Jan-11 12:31N 37°56' E 023°38'0 0.0
2017-Jan-11 11:28N 37°56' E 023°38'0 0.0
2017-Jan-11 10:30N 37°56' E 023°38'0 0.0
2017-Jan-11 09:33N 37°56' E 023°38'0 0.0
2017-Jan-11 08:33N 37°56' E 023°38'0 0.0
2017-Jan-11 07:33N 37°56' E 023°38'0 0.0
2017-Jan-11 06:33N 37°56' E 023°38'0 0.0
2017-Jan-11 05:33N 37°56' E 023°38'0 0.0
2017-Jan-11 04:33N 37°56' E 023°38'0 0.0
2017-Jan-11 03:33N 37°56' E 023°38'1413.6
2017-Jan-11 02:33N 37°44' E 023°44'7 0.2
2017-Jan-09 20:33N 37°37' E 023°43'1919.1
2017-Jan-09 19:34N 37°55' E 023°37'1 1.2
2017-Jan-09 18:34N 37°56' E 023°38'0 0.0
2017-Jan-09 17:34N 37°56' E 023°38'0 0.0
2017-Jan-09 16:33N 37°56' E 023°38'0 0.0
2017-Jan-09 15:34N 37°56' E 023°38'0 0.0
2017-Jan-09 14:33N 37°56' E 023°38'0 0.0
2017-Jan-09 13:33N 37°56' E 023°38'0 0.0
2017-Jan-09 12:33N 37°56' E 023°38'0 0.0
2017-Jan-09 11:33N 37°56' E 023°38'0 0.0
2017-Jan-09 10:33N 37°56' E 023°38'0 0.0
2017-Jan-09 09:33N 37°56' E 023°38'0 0.0
2017-Jan-09 08:34N 37°56' E 023°38'0 0.0
2017-Jan-09 07:33N 37°56' E 023°38'0 0.0
2017-Jan-09 06:33N 37°56' E 023°38'0 0.0
2017-Jan-09 05:33N 37°56' E 023°38'0 0.0
2017-Jan-09 04:33N 37°56' E 023°38'0 0.0
2017-Jan-09 03:34N 37°56' E 023°38'1313.2
2017-Jan-09 02:34N 37°44' E 023°44'  
Track history (hours):
 
Tides and Currents Weather Stations Pressure Air Temp Water Temp Dewpoint Dewpoint Depression Visibility Wind Speed Wind Dir Waves Ship Positions

Blue Galaxy

Last reported at 2017-Jan-17 20:33 UTC. Time now 2017-Jan-18 20:22 UTC.
Position N 37°36' E 023°43'.

Length 192 m; draft 6.7 m.

Type: Passenger vessel. MMSI: 239672000.

Date/timePositionNaut miles runAvg speedWind from/ knotsBaromVisibWave heightAir tempDewpointWater temp
2017-Jan-17 20:33N 37°36' E 023°43'1919.0
2017-Jan-17 19:33N 37°55' E 023°37'2 2.1
2017-Jan-17 18:33N 37°56' E 023°38'0 0.0
2017-Jan-17 17:33N 37°56' E 023°38'0 0.0
2017-Jan-17 16:33N 37°56' E 023°38'0 0.0
2017-Jan-17 15:33N 37°56' E 023°38'0 0.0
2017-Jan-17 14:33N 37°56' E 023°38'0 0.0
2017-Jan-17 13:33N 37°56' E 023°38'0 0.0
2017-Jan-17 12:30N 37°56' E 023°38'0 0.0
2017-Jan-17 11:32N 37°56' E 023°38'0 0.0
2017-Jan-17 10:32N 37°56' E 023°38'0 0.0
2017-Jan-17 09:32N 37°56' E 023°38'0 0.0
2017-Jan-17 08:32N 37°56' E 023°38'0 0.0
2017-Jan-17 07:32N 37°56' E 023°38'0 0.0
2017-Jan-17 06:33N 37°56' E 023°38'0 0.0
2017-Jan-17 05:33N 37°56' E 023°38'0 0.0
2017-Jan-17 04:33N 37°56' E 023°38'0 0.1
2017-Jan-17 03:33N 37°56' E 023°37'1717.1
2017-Jan-17 02:33N 37°41' E 023°46'4 0.1
2017-Jan-15 20:33N 37°37' E 023°43'1918.9
2017-Jan-15 19:33N 37°55' E 023°36'2 1.9
2017-Jan-15 18:33N 37°56' E 023°38'0 0.0
2017-Jan-15 17:33N 37°56' E 023°38'0 0.0
2017-Jan-15 16:33N 37°56' E 023°38'0 0.0
2017-Jan-15 15:33N 37°56' E 023°38'0 0.0
2017-Jan-15 14:30N 37°56' E 023°38'0 0.0
2017-Jan-15 13:30N 37°56' E 023°38'0 0.0
2017-Jan-15 12:30N 37°56' E 023°38'0 0.0
2017-Jan-15 11:33N 37°56' E 023°38'0 0.0
2017-Jan-15 10:33N 37°56' E 023°38'0 0.0
2017-Jan-15 09:33N 37°56' E 023°38'0 0.0
2017-Jan-15 08:30N 37°56' E 023°38'0 0.0
2017-Jan-15 07:33N 37°56' E 023°38'0 0.0
2017-Jan-15 06:30N 37°56' E 023°38'0 0.0
2017-Jan-15 05:33N 37°56' E 023°38'0 0.0
2017-Jan-15 04:33N 37°56' E 023°38'1 0.9
2017-Jan-15 03:34N 37°56' E 023°37'1918.8
2017-Jan-15 02:33N 37°39' E 023°48'5 0.2
2017-Jan-13 20:33N 37°37' E 023°43'1918.7
2017-Jan-13 19:33N 37°55' E 023°37'2 1.9
2017-Jan-13 18:31N 37°56' E 023°38'0 0.0
2017-Jan-13 17:31N 37°56' E 023°38'0 0.0
2017-Jan-13 16:31N 37°56' E 023°38'0 0.0
2017-Jan-13 15:31N 37°56' E 023°38'0 0.0
2017-Jan-13 14:31N 37°56' E 023°38'0 0.0
2017-Jan-13 13:31N 37°56' E 023°38'0 0.0
2017-Jan-13 12:32N 37°56' E 023°38'0 0.0
2017-Jan-13 11:31N 37°56' E 023°38'0 0.0
2017-Jan-13 10:31N 37°56' E 023°38'0 0.0
2017-Jan-13 09:31N 37°56' E 023°38'0 0.0
2017-Jan-13 08:31N 37°56' E 023°38'0 0.0
2017-Jan-13 07:25N 37°56' E 023°38'0 0.0
2017-Jan-13 06:31N 37°56' E 023°38'0 0.0
2017-Jan-13 05:31N 37°56' E 023°38'0 0.0
2017-Jan-13 04:31N 37°56' E 023°38'0 0.1
2017-Jan-13 03:34N 37°56' E 023°38'1716.6
2017-Jan-13 02:34N 37°41' E 023°45'4 0.1
2017-Jan-11 20:33N 37°37' E 023°43'1918.6
2017-Jan-11 19:33N 37°55' E 023°37'2 2.0
2017-Jan-11 18:33N 37°56' E 023°38'0 0.0
2017-Jan-11 17:33N 37°56' E 023°38'0 0.0
2017-Jan-11 16:33N 37°56' E 023°38'0 0.0
2017-Jan-11 15:32N 37°56' E 023°38'0 0.0
2017-Jan-11 14:33N 37°56' E 023°38'0 0.0
2017-Jan-11 13:31N 37°56' E 023°38'0 0.0
2017-Jan-11 12:31N 37°56' E 023°38'0 0.0
2017-Jan-11 11:28N 37°56' E 023°38'0 0.0
2017-Jan-11 10:30N 37°56' E 023°38'0 0.0
2017-Jan-11 09:33N 37°56' E 023°38'0 0.0
2017-Jan-11 08:33N 37°56' E 023°38'0 0.0
2017-Jan-11 07:33N 37°56' E 023°38'0 0.0
2017-Jan-11 06:33N 37°56' E 023°38'0 0.0
2017-Jan-11 05:33N 37°56' E 023°38'0 0.0
2017-Jan-11 04:33N 37°56' E 023°38'0 0.0
2017-Jan-11 03:33N 37°56' E 023°38'1413.6
2017-Jan-11 02:33N 37°44' E 023°44'7 0.2
2017-Jan-09 20:33N 37°37' E 023°43'1919.1
2017-Jan-09 19:34N 37°55' E 023°37'1 1.2
2017-Jan-09 18:34N 37°56' E 023°38'0 0.0
2017-Jan-09 17:34N 37°56' E 023°38'0 0.0
2017-Jan-09 16:33N 37°56' E 023°38'0 0.0
2017-Jan-09 15:34N 37°56' E 023°38'0 0.0
2017-Jan-09 14:33N 37°56' E 023°38'0 0.0
2017-Jan-09 13:33N 37°56' E 023°38'0 0.0
2017-Jan-09 12:33N 37°56' E 023°38'0 0.0
2017-Jan-09 11:33N 37°56' E 023°38'0 0.0
2017-Jan-09 10:33N 37°56' E 023°38'0 0.0
2017-Jan-09 09:33N 37°56' E 023°38'0 0.0
2017-Jan-09 08:34N 37°56' E 023°38'0 0.0
2017-Jan-09 07:33N 37°56' E 023°38'0 0.0
2017-Jan-09 06:33N 37°56' E 023°38'0 0.0
2017-Jan-09 05:33N 37°56' E 023°38'0 0.0
2017-Jan-09 04:33N 37°56' E 023°38'0 0.0
2017-Jan-09 03:34N 37°56' E 023°38'1313.2
2017-Jan-09 02:34N 37°44' E 023°44'  

Dump ship's entire track history